Aviation Digital Data Service (ADDS)

Output produced by METARs form (1110 UTC 19 January 2019)
found at http://www.aviationweather.gov/metar/data/
 
EKYT 191050Z AUTO 26005KT 9999 FEW120/// SCT150/// 01/M00 Q1016 R26L/390161
TAF EKYT 190824Z 1909/2006 23007KT 9999 FEW030 SCT150 
     TEMPO 1914/2006 4000 SHSNRAGS BR SCT030CB
       
EKAH 191050Z AUTO 23005KT 200V260 9999NDV NCD 02/02 Q1018 R10/310093
TAF EKAH 190509Z 1906/2006 25003KT 9999 FEW025 
     TEMPO 1915/1920 3000 BR
       
EKBI 191050Z AUTO 18003KT 9999 BKN019/// 01/01 Q1018 R09/310195
TAF AMD EKBI 190656Z 1906/2006 12003KT 0100 FZFG VV001 
     TEMPO 1906/1911 3000 BR SCT001 
     BECMG 1911/1913 9999 NSW SCT020
       
EKRN 191050Z AUTO 28010KT 9999 BKN012/// 03/01 Q1018
TAF EKRN 190829Z 1909/1918 28010KT 9999 SCT010 
     TEMPO 1909/1918 BKN008
       
EKEB 191050Z AUTO 16003KT 9999 SCT019/// 02/02 Q1018
TAF EKEB 190823Z 1909/1918 16005KT 9999 FEW020 
     TEMPO 1909/1912 1000 BR BKN002
       
EKKA 191050Z AUTO 21005KT 9999NDV BKN100/// 02/01 Q1017 R27L/350095
TAF EKKA 190824Z 1909/2006 21006KT 9999 FEW030 SCT150 
     PROB40 1909/1918 3000 BR 
     TEMPO 1918/2006 2000 MIFG
       
EKCH 191050Z 24009KT 9999 FEW005 BKN250 01/01 Q1018 R04L/350249 R04R/320251 R12/390239 BECMG 2000 BKN003
TAF EKCH 191101Z 1912/2012 24008KT 2000 BR BKN003 
     TEMPO 1912/1920 5000 SCT005 
     BECMG 1920/1922 8000 NSW FEW007 
     TEMPO 1922/2006 4000 BR
       
EKVD 191050Z 20005KT 0100 FZFG VV001 M00/M00 Q1018
TAF EKVD 190903Z 1909/1916 18005KT 9999 FEW030 
     TEMPO 1909/1912 0400 FZFG VV001
       
EKOD 191050Z 22009KT 0500 R06///// R24///// FG VV002 00/M00 Q1019 06/390195
TAF EKOD 190903Z 1909/1915 18005KT CAVOK 
     BECMG 1909/1911 0400 FZFG VV001 
     TEMPO 1911/1913 3000 BR SCT001 
     BECMG 1913/1915 9999 NSW FEW020
       
EKRK 191050Z AUTO 24006KT 0350NDV R11/0700N R29/0700U FG VV001 00/M00 Q1018 R99/390193 R99/2/0194
TAF EKRK 190829Z 1909/1918 24005KT 9999 FEW020 
     BECMG 1910/1912 0600 FG FZFG BKN002 
     TEMPO 1912/1915 5000 BR SCT003 
     BECMG 1915/1917 5000 BR SCT005 
     TEMPO 1917/1918 2000 BKN004
       
EKSP 191050Z 20006KT 2000 BR FEW002 00/00 Q1018
TAF AMD EKSP 190902Z 1909/2006 21005KT 0500 FZFG VV001 
     BECMG 1909/1911 8000 NSW FEW008 SCT150 
     TEMPO 1911/1914 3000 BR BKN004 
     TEMPO 1920/2006 3000 MIFG
       
EKSB 191050Z AUTO 21009KT 0900NDV R14/0900U R32/0900N FG VV002 01/01 Q1019
TAF AMD EKSB 190704Z 1906/1911 20005KT 0200 FZFG VV002 
     TEMPO 1906/1911 4000 BR SCT002
       
EKVJ 191050Z 20003KT 9999 FEW020 BKN240 03/03 Q1018